»·PEaware :: N172SP KSBP-KSMX

N172SP :: KSBP-KSMX

FLIGHT INFORMATION

Flight Status: Arrived
Operator: Privately registered:
United States
More flights under this callsign
Pilot: Brian D. (22974)
Aircraft: CESSNA 172 SKYHAWK
(C172)
More flights by this aircraft type
Origin: KSBP San Luis Co Regl
United States
Destination: KSMX Santa Maria Pub/Capt Hancock
United States
More flights between these airports :: More routes between these airports
Route: DCT
File this flight plan on PilotEdge
Remarks: New Pilot CAT-IIII
Altitude:
(Current/Filed)
3,500ft
Speed:
(Current/Filed)
100kts
Departed: 11-Jan-19 07:03 PM
Arrived: 11-Jan-19 07:21 PM
Distance/Time
Traveled:
22nm/0:17
Distance/Time
To Go:
Arrived

Flight Plot

Page will automatically refresh every two minutes.


Map Options




Map Legend


Flown Route
Filed Route
Departure Airport
Arrival Airport
Navaid (VOR, NDB)
Fix

Horizontal Profiles

Position Reports

Time Latitude Longitude Heading Altitude Ground
Speed
11-Jan-19 18:38 35.238620 -120.639181 269 215ft 0kts
11-Jan-19 18:39 35.238620 -120.639181 269 215ft 0kts
11-Jan-19 18:40 35.238620 -120.639181 269 215ft 0kts
11-Jan-19 18:41 35.238620 -120.639181 269 215ft 0kts
11-Jan-19 18:42 35.238620 -120.639181 269 215ft 0kts
11-Jan-19 18:43 35.238125 -120.639895 214 215ft 12kts
11-Jan-19 18:44 35.235767 -120.636333 126 215ft 10kts
11-Jan-19 18:45 35.235349 -120.635602 107 215ft 4kts
11-Jan-19 18:46 35.235230 -120.634889 123 215ft 0kts
11-Jan-19 18:47 35.235230 -120.634889 123 215ft 0kts
11-Jan-19 18:48 35.234394 -120.633769 236 215ft 5kts
11-Jan-19 18:49 35.236149 -120.637013 305 215ft 18kts
11-Jan-19 18:50 35.238843 -120.641946 307 215ft 11kts
11-Jan-19 18:51 35.241447 -120.646310 305 215ft 16kts
11-Jan-19 18:52 35.242654 -120.648429 302 215ft 14kts
11-Jan-19 18:53 35.242648 -120.649045 229 215ft 0kts
11-Jan-19 18:54 35.242648 -120.649045 229 215ft 0kts
11-Jan-19 18:55 35.242648 -120.649045 229 215ft 0kts
11-Jan-19 18:56 35.242648 -120.649045 229 215ft 0kts
11-Jan-19 18:57 35.242648 -120.649045 228 215ft 0kts
11-Jan-19 18:58 35.242648 -120.649045 228 215ft 0kts
11-Jan-19 18:59 35.242648 -120.649045 229 215ft 0kts
11-Jan-19 19:00 35.242648 -120.649045 229 215ft 0kts
11-Jan-19 19:01 35.241187 -120.647771 124 215ft 23kts
11-Jan-19 19:02 35.229351 -120.632710 153 995ft 73kts
11-Jan-19 19:03 35.209587 -120.630320 156 2137ft 74kts
11-Jan-19 19:04 35.192856 -120.616058 148 3228ft 75kts
11-Jan-19 19:05 35.172885 -120.603965 155 3499ft 85kts
11-Jan-19 19:06 35.152256 -120.592749 155 3499ft 79kts
11-Jan-19 19:07 35.132458 -120.582106 155 3499ft 77kts
11-Jan-19 19:08 35.112861 -120.571602 155 3499ft 76kts
11-Jan-19 19:09 35.093464 -120.561216 155 3499ft 76kts
11-Jan-19 19:10 35.074081 -120.550844 155 3499ft 76kts
11-Jan-19 19:11 35.054799 -120.540534 155 3499ft 76kts
11-Jan-19 19:12 35.035585 -120.530306 156 3322ft 75kts
11-Jan-19 19:13 35.016355 -120.520058 155 3065ft 75kts
11-Jan-19 19:14 34.995060 -120.508702 156 2820ft 85kts
11-Jan-19 19:15 34.973537 -120.497290 156 2167ft 83kts
11-Jan-19 19:16 34.952318 -120.486033 156 1353ft 83kts
11-Jan-19 19:17 34.931298 -120.477114 190 1191ft 71kts
11-Jan-19 19:18 34.915911 -120.474433 121 902ft 67kts
11-Jan-19 19:19 34.904687 -120.460040 134 272ft 47kts
11-Jan-19 19:20 34.899706 -120.453299 17 265ft 9kts
11-Jan-19 19:21 34.900717 -120.453144 51 265ft 8kts
11-Jan-19 19:22 34.900379 -120.450097 176 265ft 8kts
11-Jan-19 19:23 34.900275 -120.450160 238 265ft 0kts
11-Jan-19 19:24 34.900275 -120.450160 238 265ft 0kts
11-Jan-19 19:25 34.900275 -120.450160 238 265ft 0kts
11-Jan-19 19:26 34.900275 -120.450160 238 265ft 0kts
11-Jan-19 19:27 34.900275 -120.450160 238 265ft 0kts
11-Jan-19 19:28 34.900275 -120.450160 238 265ft 0kts
11-Jan-19 19:29 34.900275 -120.450160 238 265ft 0kts
11-Jan-19 19:30 34.900275 -120.450160 238 265ft 0kts
11-Jan-19 19:31 34.900275 -120.450160 238 265ft 0kts
11-Jan-19 19:32 34.900275 -120.450160 238 265ft 0kts
11-Jan-19 19:33 34.900275 -120.450160 238 265ft 0kts
11-Jan-19 19:34 34.900275 -120.450160 238 265ft 0kts

Navigation Log

Ident Type
Flight plan parsing failed, navigation log unavailable